Incline Creek, Nevada Weather observations

Data are for observation ending at time listed.
 Day   Time    Ave.   Ave.  Ave.  Vector   Max.   Stn.    Total    Solar   Ave.   Snow 
  of    of     Air    Rel.  Wind   Wind    Wind   Baro.  Precip.   Rad.    Soil   Depth
Year   Day     Temp.  Hum.  Speed  Dir.    Gust   Pres.                    Temp.       
2015   (PST)    F      %     mph   deg.    mph     mb.     in.     W/m2     F      in. 
---------------------------------------------------------------------------------------  
 208   21:20   57.7    28    2.3     1      4.7   999.0    0.00       0    999.0   83.9
 208   21:30   56.8    29    2.7     6      5.1   999.0    0.00       0    999.0    0.0
 208   21:40   56.7    29    2.7   355      4.6   999.0    0.00       0    999.0    0.0
 208   21:50   55.9    30    2.4   357      4.3   999.0    0.00       0    999.0    0.0
 208   22:00   57.7    27    3.2   349      7.8   999.0    0.00       0    999.0    0.0
 208   22:10   59.6    25    3.2   352      8.3   999.0    0.00       0    999.0    0.0
 208   22:20   59.3    25    4.2   355      7.8   999.0    0.00       0    999.0    0.0
 208   22:30   59.3    25    4.2   360      8.3   999.0    0.00       0    999.0   83.9
 208   22:40   59.8    24    3.4   346      7.8   999.0    0.00       0    999.0    0.0
 208   22:50   59.9    23    4.5   335      8.8   999.0    0.00       0    999.0    0.0
 208   23:00   60.1    23    4.1   344     13.7   999.0    0.00       0    999.0    0.0
 208   23:10   59.8    23    4.8   343     12.6   999.0    0.00       0    999.0    0.0
 208   23:20   59.8    23    3.8   343      8.1   999.0    0.00       0    999.0    0.0
 208   23:30   59.2    24    3.3   341      7.7   999.0    0.00       0    999.0    0.0
 208   23:40   59.1    24    4.1   350     10.6   999.0    0.00       0    999.0    0.0
 208   23:50   59.1    25    3.9   325      9.5   999.0    0.00       0    999.0    0.0
 209    0:00   58.8    26    3.8   356     12.0   999.0    0.00       0    999.0    0.0
 209    0:10   58.6    26    4.0   349     12.1   999.0    0.00       0    999.0    0.0
 209    0:20   58.1    26    4.4   307      8.7   999.0    0.00       0    999.0    0.0
 209    0:30   57.9    26    3.6   318      7.5   999.0    0.00       0    999.0    0.0
 209    0:40   57.6    27    3.5   320      6.0   999.0    0.00       0    999.0    0.0
 209    0:50   57.5    27    4.3   313      8.7   999.0    0.00       0    999.0    0.0
 209    1:00   57.8    27    4.3   317     10.9   999.0    0.00       0    999.0    0.0
 209    1:10   57.6    27    4.8   311      9.6   999.0    0.00       0    999.0   83.9
 209    1:20   57.3    27    4.5   310      9.9   999.0    0.00       0    999.0    0.0
 209    1:30   57.0    27    4.9   315     10.1   999.0    0.00       0    999.0    0.0
 209    1:40   56.7    28    4.7   315      8.6   999.0    0.00       0    999.0   83.9
 209    1:50   56.6    28    3.8   319      8.6   999.0    0.00       0    999.0    0.0
 209    2:00   56.1    28    3.9   316      7.3   999.0    0.00       0    999.0    0.0
 209    2:10   55.9    29    3.6   318      7.8   999.0    0.00       0    999.0    0.0
 209    2:20   55.6    29    3.7   312      9.8   999.0    0.00       0    999.0   83.9
 209    2:30   55.6    29    4.2   317     10.7   999.0    0.00       0    999.0    0.0
 209    2:40   55.3    29    4.6   314      8.9   999.0    0.00       0    999.0   83.9
 209    2:50   55.5    29    4.9   324     10.3   999.0    0.00       0    999.0    0.0
 209    3:00   55.4    29    4.6   316     12.5   999.0    0.00       0    999.0   83.9
 209    3:10   55.5    28    5.1   345     10.7   999.0    0.00       0    999.0    0.0
 209    3:20   55.2    28    4.2   324     10.2   999.0    0.00       0    999.0    0.0
 209    3:30   54.9    29    3.8   315      9.8   999.0    0.00       0    999.0    0.0
 209    3:40   54.7    29    3.8   310      9.3   999.0    0.00       0    999.0    0.0
 209    3:50   54.5    29    3.5   319      9.2   999.0    0.00       0    999.0    0.0
 209    4:00   54.5    29    4.4   324      8.8   999.0    0.00       0    999.0    0.0
 209    4:10   54.1    29    4.1   319     12.4   999.0    0.00       0    999.0   83.9
 209    4:20   54.5    29    4.0   322      7.6   999.0    0.00       0    999.0    0.0
 209    4:30   54.4    29    5.0   319     11.5   999.0    0.00       0    999.0    0.0
 209    4:40   54.1    29    4.2   322      8.8   999.0    0.00       0    999.0    0.0
 209    4:50   53.9    29    4.7   324      9.6   999.0    0.00       1    999.0    0.0
 209    5:00   53.7    29    4.1   321      9.0   999.0    0.00       3    999.0    0.0
 209    5:10   53.6    29    4.6   320      8.1   999.0    0.00       6    999.0    0.0
 209    5:20   53.8    29    4.4   318      9.8   999.0    0.00       8    999.0    0.0
 209    5:30   53.9    29    4.1   323      9.1   999.0    0.00      10    999.0    0.0
 209    5:40   53.8    29    3.2   325      8.2   999.0    0.00      12    999.0    0.0
 209    5:50   53.9    29    4.3   315      9.1   999.0    0.00      13    999.0    0.0
 209    6:00   54.0    28    3.8   328      9.4   999.0    0.00      14    999.0    0.0
 209    6:10   54.1    28    4.7   326     14.4   999.0    0.00      16    999.0    0.0
 209    6:20   54.1    28    4.4   311     11.4   999.0    0.00      20    999.0   83.9
 209    6:30   54.4    28    3.0   328      9.9   999.0    0.00      51    999.0    0.0
 209    6:40   55.6    26    3.9   328     13.5   999.0    0.00     280    999.0    0.0
 209    6:50   56.4    25    3.8   314     12.3   999.0    0.00     315    999.0    0.0
 209    7:00   56.9    24    3.8   356     12.2   999.0    0.00     350    999.0    0.0
 209    7:10   57.1    24    4.1   346     13.6   999.0    0.00     383    999.0    0.0
 209    7:20   57.9    24    2.9    74      8.1   999.0    0.00     417    999.0    0.0
 209    7:30   58.1    23    4.4    87     13.0   999.0    0.00     451    999.0    0.0
 209    7:40   57.9    23    5.0     6     18.6   999.0    0.00     484    999.0    0.0
 209    7:50   58.6    23    4.4   303     12.5   999.0    0.00     516    999.0    0.0
 209    8:00   58.7    23    4.9   218     15.3   999.0    0.00     548    999.0    0.0
 209    8:10   59.2    23    3.8   127     10.8   999.0    0.00     580    999.0    0.0
 209    8:20   59.8    22    4.3    31     13.3   999.0    0.00     611    999.0    0.0
 209    8:30   59.9    22    4.8   331     16.4   999.0    0.00     641    999.0    0.0
 209    8:40   59.8    22    4.1    37     11.7   999.0    0.00     671    999.0    0.0
 209    8:50   60.8    22    4.3   103     12.5   999.0    0.00     699    999.0    0.0
 209    9:00   60.8    22    5.6   338     15.1   999.0    0.00     727    999.0    0.0
 209    9:10   60.5    22    6.0   338     12.8   999.0    0.00     754    999.0    0.0
 209    9:20   61.9    21    4.6   331     10.3   999.0    0.00     780    999.0   83.9
 209    9:30   62.1    21    5.2    54     16.2   999.0    0.00     805    999.0    0.0
 209    9:40   62.0    21    5.7   351     13.3   999.0    0.00     829    999.0    0.0
 209    9:50   62.5    21    5.8   346     14.7   999.0    0.00     851    999.0   83.9
 209   10:00   62.2    21    5.7     1     14.3   999.0    0.00     872    999.0   83.9
 209   10:10   62.3    20    4.8    26     13.6   999.0    0.00     892    999.0    0.0
 209   10:20   63.0    20    5.1    53     12.1   999.0    0.00     910    999.0    0.0
 209   10:30   63.5    20    4.8   350     13.0   999.0    0.00     928    999.0   83.9
 209   10:40   64.0    20    4.1   221     12.2   999.0    0.00     943    999.0    0.0
 209   10:50   64.3    20    5.8   169     12.7   999.0    0.00     956    999.0    0.0
 209   11:00   65.0    20    5.2   337     11.4   999.0    0.00     968    999.0    0.0
 209   11:10   65.6    19    5.7   125     14.2   999.0    0.00     979    999.0    0.0
 209   11:20   66.1    18    3.4   350      9.9   999.0    0.00     989    999.0    0.0
 209   11:30   66.8    18    3.3   145     11.1   999.0    0.00     997    999.0    0.0
 209   11:40   66.7    18    4.1    30     12.1   999.0    0.00    1002    999.0    0.0
 209   11:50   67.2    18    4.2   195      8.8   999.0    0.00    1005    999.0    0.0
 209   12:00   66.9    18    5.2   157     16.6   999.0    0.00    1008    999.0    0.0
 209   12:10   67.1    18    5.1   250     11.7   999.0    0.00    1009    999.0   83.9
 209   12:20   67.9    17    4.9   172     12.5   999.0    0.00    1009    999.0    0.0
 209   12:30   68.2    17    3.8   176      9.9   999.0    0.00    1007    999.0    0.0
 209   12:40   68.9    16    4.3   241     11.5   999.0    0.00    1005    999.0    0.0
 209   12:50   69.7    16    3.8    66     11.8   999.0    0.00     998    999.0    0.0
 209   13:00   69.8    16    4.1    99     11.2   999.0    0.00     992    999.0    0.0
 209   13:10   69.3    16    3.8   160      7.6   999.0    0.00     983    999.0    0.0
 209   13:20   69.4    16    4.1     6     12.4   999.0    0.00     971    999.0    0.0
 209   13:30   69.3    16    4.6   352     11.5   999.0    0.00     958    999.0    0.0
 209   13:40   70.8    15    4.0   169      9.6   999.0    0.00     944    999.0    0.0
 209   13:50   71.0    14    3.4    84      8.2   999.0    0.00     929    999.0    0.0
 209   14:00   71.5    14    3.7   107      8.7   999.0    0.00     912    999.0   83.9
 209   14:10   71.2    14    3.5    32      8.9   999.0    0.00     894    999.0   83.9
 209   14:20   72.2    14    2.9     8      7.8   999.0    0.00     872    999.0   83.9
 209   14:30   73.1    14    2.8   106      9.4   999.0    0.00     852    999.0   83.9
 209   14:40   73.1    14    5.0   180     10.3   999.0    0.00     831    999.0    0.0
 209   14:50   72.5    15    4.7   164      9.6   999.0    0.00     805    999.0    0.0
 209   15:00   72.4    15    4.2    60     11.5   999.0    0.00     780    999.0    0.0
 209   15:10   74.0    14    3.5   167      8.6   999.0    0.00     756    999.0    0.0
 209   15:20   74.4    14    3.0    59      9.9   999.0    0.00     731    999.0    0.0
 209   15:30   74.1    14    3.8   168     10.3   999.0    0.00     701    999.0    0.0
 209   15:40   74.6    14    2.8   160      7.3   999.0    0.00     669    999.0    0.0
 209   15:50   74.1    15    5.2   161     12.9   999.0    0.00     636    999.0    0.0
 209   16:00   74.5    16    3.0   163     10.0   999.0    0.00     603    999.0    0.0
 209   16:10   74.1    14    4.0    28      8.0   999.0    0.00     572    999.0    0.0
 209   16:20   74.1    14    2.9   118      6.5   999.0    0.00     540    999.0    0.0
 209   16:30   74.3    14    2.6    30      9.2   999.0    0.00     508    999.0    0.0
 209   16:40   73.6    15    4.6   170     12.5   999.0    0.00     476    999.0    0.0
 209   16:50   73.3    15    5.1   128     10.7   999.0    0.00     443    999.0    0.0
 209   17:00   72.5    14    5.0     7     12.8   999.0    0.00     411    999.0    0.0
 209   17:10   72.7    14    2.8   106      9.0   999.0    0.00     378    999.0    0.0
 209   17:20   73.1    14    3.2    11      9.7   999.0    0.00     303    999.0    0.0
 209   17:30   71.5    14    3.0   320      8.6   999.0    0.00     113    999.0    0.0
 209   17:40   71.2    14    3.1   340     11.4   999.0    0.00      23    999.0    0.0
 209   17:50   71.1    15    2.4    32      7.5   999.0    0.00      21    999.0    0.0
 209   18:00   70.9    15    2.2    71      6.9   999.0    0.00      19    999.0    0.0
 209   18:10   70.5    15    2.4    20      6.7   999.0    0.00      18    999.0    0.0
 209   18:20   70.1    15    2.5    24      6.2   999.0    0.00      16    999.0    0.0
 209   18:30   69.8    16    3.0   358      8.6   999.0    0.00      15    999.0    0.0
 209   18:40   69.3    15    3.7     1      8.2   999.0    0.00      13    999.0    0.0
 209   18:50   68.8    16    2.8     3      6.1   999.0    0.00      11    999.0    0.0
 209   19:00   67.9    17    2.8   355      5.8   999.0    0.00       8    999.0    0.0
 209   19:10   67.4    17    3.5     4      6.2   999.0    0.00       6    999.0    0.0
 209   19:20   67.4    16    4.1   328      8.6   999.0    0.00       3    999.0    0.0
 209   19:30   67.3    16    3.8   306      7.1   999.0    0.00       1    999.0    0.0
 209   19:40   67.0    16    4.5   319     12.8   999.0    0.00       0    999.0    0.0
 209   19:50   66.8    16    4.4   314      9.6   999.0    0.00       0    999.0    0.0
 209   20:00   66.5    16    3.8   327      8.4   999.0    0.00       0    999.0    0.0
 209   20:10   66.2    16    3.5   324      9.4   999.0    0.00       0    999.0    0.0
 209   20:20   66.0    16    4.1   316      7.8   999.0    0.00       0    999.0    0.0
 209   20:30   65.6    17    3.7   319      7.9   999.0    0.00       0    999.0    0.0
 209   20:40   65.1    17    4.1   314      6.6   999.0    0.00       0    999.0    0.0
 209   20:50   64.7    17    3.6   317      8.0   999.0    0.00       0    999.0    0.0
 209   21:00   64.5    18    3.7   321      6.0   999.0    0.00       0    999.0    0.0
 209   21:10   64.2    18    3.8   314      6.4   999.0    0.00       0    999.0    0.0

Return to Incline Creek graphs page.


Western Regional Climate Center,wrcc@dri.edu